Terminal Aerodrome Forecast
Issued by NWS Sterling, VA

Current Version | Previous Version | Graphics & Text | Print | Product List | Glossary On
Versions: 1 2 3 4 5 6 7 8 9 10 11 12 13 14 15 16 17 18 19 20 21
555
FTUS41 KLWX 221731
TAFIAD
TAF
KIAD 221731Z 2218/2324 24006KT P6SM BKN040
     FM230000 20006KT P6SM BKN090
     FM231500 21010KT P6SM OVC040
     FM231900 22012G21KT P6SM BKN200=

USA.gov is the U.S. government's official web portal to all federal, state and local government web resources and services.